Time;durP1;ratioP1;P1;durP2;ratioP2;P2;SDS_P1;SDS_P2;PMS_P1;PMS_P2;Temp;Humidity;BMP_temperature;BMP_pressure;BME280_temperature;BME280_humidity;BME280_pressure;Samples;Min_cycle;Max_cycle;Signal;HPM_P1;HPM_P2
2022/05/05 00:00:21;;;;;;;5.95;2.13;;;;;;;14.21;100.00;101359.28;5072956;28;20410;-86
2022/05/05 00:02:48;;;;;;;6.00;1.85;;;;;;;14.42;100.00;101351.41;5073632;28;20052;-86
2022/05/05 00:05:14;;;;;;;4.63;1.70;;;;;;;14.37;100.00;101334.94;5064242;28;20048;-86
2022/05/05 00:07:41;;;;;;;6.30;2.15;;;;;;;14.52;100.00;101370.28;5062994;28;20048;-86
2022/05/05 00:15:39;;;;;;;7.18;1.85;;;;;;;14.53;100.00;101359.66;5063841;28;20056;-86
2022/05/05 00:18:06;;;;;;;4.93;1.70;;;;;;;14.24;100.00;101326.72;5052653;28;20048;-86
2022/05/05 00:20:33;;;;;;;7.15;1.90;;;;;;;14.28;100.00;101337.97;5056011;28;20044;-86
2022/05/05 00:22:59;;;;;;;6.22;1.85;;;;;;;14.04;100.00;101389.00;5073169;28;20067;-85
2022/05/05 00:25:26;;;;;;;7.28;1.85;;;;;;;14.29;100.00;101343.19;5073084;28;21004;-86
2022/05/05 00:27:53;;;;;;;5.63;1.95;;;;;;;14.38;100.00;101386.69;5071547;28;20048;-85
2022/05/05 00:30:19;;;;;;;8.25;2.08;;;;;;;14.14;100.00;101357.84;5072106;28;20049;-85
2022/05/05 00:32:46;;;;;;;6.00;2.08;;;;;;;14.47;100.00;101382.81;5071775;28;20135;-85
2022/05/05 00:35:13;;;;;;;6.63;2.22;;;;;;;13.77;100.00;101356.75;5072855;28;20518;-86
2022/05/05 00:37:39;;;;;;;6.47;2.03;;;;;;;13.63;100.00;101332.78;5073078;28;20052;-85
2022/05/05 00:40:07;;;;;;;7.47;2.20;;;;;;;13.54;100.00;101364.72;5070634;28;20048;-85
2022/05/05 00:42:35;;;;;;;6.05;2.00;;;;;;;13.98;100.00;101349.72;5072639;28;20491;-85
2022/05/05 00:45:03;;;;;;;6.10;1.90;;;;;;;14.23;100.00;101383.78;5072573;28;20395;-86
2022/05/05 00:47:30;;;;;;;5.50;1.90;;;;;;;13.93;100.00;101366.66;5071234;28;20052;-85
2022/05/05 00:49:59;;;;;;;5.45;1.90;;;;;;;14.34;100.00;101370.19;5071157;28;20055;-85
2022/05/05 00:52:27;;;;;;;5.50;1.75;;;;;;;14.61;100.00;101396.28;5070740;28;20059;-85
2022/05/05 00:54:57;;;;;;;4.25;1.58;;;;;;;14.41;100.00;101354.94;5072435;28;20479;-85
2022/05/05 00:57:24;;;;;;;5.00;1.70;;;;;;;14.65;100.00;101395.22;5072617;28;20049;-85
2022/05/05 00:59:52;;;;;;;4.05;1.50;;;;;;;14.69;100.00;101378.31;5073092;28;20051;-86
2022/05/05 01:02:20;;;;;;;5.95;1.70;;;;;;;14.50;100.00;101362.47;5072012;28;20044;-86
2022/05/05 01:04:47;;;;;;;7.35;2.00;;;;;;;14.57;100.00;101386.75;5072458;28;20055;-86
2022/05/05 01:07:15;;;;;;;5.05;1.80;;;;;;;14.50;100.00;101364.22;5072881;28;20074;-85
2022/05/05 01:09:41;;;;;;;6.28;1.80;;;;;;;14.18;100.00;101354.19;5071391;28;20071;-85
2022/05/05 01:12:09;;;;;;;5.70;1.70;;;;;;;14.40;100.00;101316.34;5071295;28;20052;-85
2022/05/05 01:14:36;;;;;;;6.10;2.00;;;;;;;14.22;100.00;101353.13;5071121;28;20046;-85
2022/05/05 01:17:05;;;;;;;5.10;2.35;;;;;;;13.77;100.00;101335.69;5070903;28;20041;-86
2022/05/05 01:19:34;;;;;;;7.60;2.08;;;;;;;14.31;100.00;101390.53;5072548;28;20567;-86
2022/05/05 01:22:03;;;;;;;5.97;2.17;;;;;;;13.77;100.00;101355.91;5069900;28;20052;-86
2022/05/05 01:30:00;;;;;;;5.70;1.92;;;;;;;13.80;100.00;101374.19;5072379;28;20055;-86
2022/05/05 01:32:32;;;;;;;7.70;1.95;;;;;;;14.53;100.00;101378.13;5070339;28;20535;-86
2022/05/05 01:35:00;;;;;;;5.88;1.90;;;;;;;14.49;100.00;101367.78;5072147;28;20048;-85
2022/05/05 01:37:28;;;;;;;6.38;1.90;;;;;;;14.10;100.00;101366.81;5071535;28;20418;-86
2022/05/05 01:39:55;;;;;;;5.40;1.85;;;;;;;13.89;100.00;101358.03;5071330;28;20051;-86
2022/05/05 01:42:23;;;;;;;6.45;1.67;;;;;;;13.78;100.00;101350.56;5069955;28;20127;-85
2022/05/05 01:44:49;;;;;;;6.68;1.73;;;;;;;13.58;100.00;101346.13;5074731;28;20051;-85
2022/05/05 01:47:16;;;;;;;7.85;2.17;;;;;;;13.90;100.00;101353.59;5074221;28;20494;-86
2022/05/05 01:49:46;;;;;;;4.95;1.58;;;;;;;13.91;100.00;101348.28;5074095;28;20052;-86
2022/05/05 01:52:13;;;;;;;5.13;1.77;;;;;;;13.83;100.00;101331.97;5074203;28;20040;-86
2022/05/05 01:54:39;;;;;;;6.13;1.80;;;;;;;13.84;100.00;101368.72;5075385;28;20426;-86
2022/05/05 01:57:06;;;;;;;4.20;1.52;;;;;;;14.02;100.00;101359.25;5072675;28;20044;-85
2022/05/05 01:59:34;;;;;;;6.60;2.17;;;;;;;13.87;100.00;101370.41;5057190;28;20143;-85
2022/05/05 02:02:00;;;;;;;5.00;1.73;;;;;;;13.98;100.00;101349.72;5074076;28;20058;-86
2022/05/05 02:04:27;;;;;;;5.32;1.75;;;;;;;14.03;100.00;101360.94;5074907;28;20048;-86
2022/05/05 02:06:54;;;;;;;5.30;1.60;;;;;;;14.20;100.00;101360.22;5074126;28;20147;-86
2022/05/05 02:09:21;;;;;;;5.55;2.42;;;;;;;14.08;100.00;101355.47;5075617;28;20072;-84
2022/05/05 02:11:48;;;;;;;6.50;1.75;;;;;;;14.04;100.00;101336.31;5075385;28;20052;-86
2022/05/05 02:14:14;;;;;;;6.82;2.17;;;;;;;13.86;100.00;101342.34;5075959;28;20049;-84
2022/05/05 02:16:41;;;;;;;5.00;1.92;;;;;;;14.04;100.00;101364.41;5075628;28;20131;-84
2022/05/05 02:19:08;;;;;;;6.85;2.25;;;;;;;13.94;100.00;101334.16;5074885;28;20070;-84
2022/05/05 02:21:35;;;;;;;7.70;2.03;;;;;;;13.91;100.00;101358.81;5075327;28;20044;-84
2022/05/05 02:24:01;;;;;;;6.55;2.00;;;;;;;13.94;100.00;101348.16;5076120;28;20373;-85
2022/05/05 02:26:28;;;;;;;7.47;1.70;;;;;;;14.07;100.00;101348.50;5074485;28;20051;-84
2022/05/05 02:28:55;;;;;;;6.82;1.75;;;;;;;14.36;100.00;101378.88;5075537;28;20054;-86
2022/05/05 02:31:22;;;;;;;5.63;2.03;;;;;;;14.15;100.00;101371.88;5074014;28;20045;-84
2022/05/05 02:33:49;;;;;;;4.82;1.67;;;;;;;14.13;100.00;101344.75;5075453;28;20052;-84
2022/05/05 02:39:01;;;;;;;4.80;1.38;;;;;;;14.18;100.00;101356.81;5075328;28;20052;-85
2022/05/05 02:41:28;;;;;;;6.15;1.70;;;;;;;14.16;100.00;101341.97;5074072;28;20052;-85
2022/05/05 02:43:54;;;;;;;3.97;1.50;;;;;;;14.54;100.00;101397.44;5073671;28;20489;-82
2022/05/05 02:46:21;;;;;;;6.07;1.80;;;;;;;13.91;100.00;101353.53;5074205;28;20059;-82
2022/05/05 02:48:48;;;;;;;5.95;1.83;;;;;;;14.12;100.00;101386.03;5055777;28;20451;-83
2022/05/05 02:51:15;;;;;;;7.53;2.03;;;;;;;14.16;100.00;101379.69;5062957;28;20044;-82
2022/05/05 02:56:27;;;;;;;6.75;1.67;;;;;;;14.25;100.00;101381.09;5074177;28;20051;-82
2022/05/05 02:58:54;;;;;;;4.22;1.67;;;;;;;14.13;100.00;101357.91;5073282;28;20056;-82
2022/05/05 03:01:20;;;;;;;4.78;1.60;;;;;;;13.84;100.00;101328.41;5073019;28;20114;-82
2022/05/05 03:03:47;;;;;;;6.50;1.77;;;;;;;13.96;100.00;101346.31;5073541;28;20048;-85
2022/05/05 03:06:14;;;;;;;10.40;2.35;;;;;;;13.77;100.00;101319.06;5072680;28;20474;-85
2022/05/05 03:08:41;;;;;;;4.90;1.60;;;;;;;14.16;100.00;101366.53;5072786;28;20143;-85
2022/05/05 03:11:08;;;;;;;5.90;1.52;;;;;;;14.00;100.00;101336.50;5073669;28;20131;-86
2022/05/05 03:13:36;;;;;;;5.32;1.80;;;;;;;13.59;100.00;101339.94;5073000;28;20056;-85
2022/05/05 03:16:04;;;;;;;5.53;1.70;;;;;;;13.82;100.00;101346.88;5074543;28;20127;-84
2022/05/05 03:18:31;;;;;;;5.60;1.77;;;;;;;13.66;100.00;101311.59;5073795;28;20118;-85
2022/05/05 03:20:58;;;;;;;5.38;1.98;;;;;;;13.90;100.00;101316.75;5072530;28;20041;-86
2022/05/05 03:23:24;;;;;;;5.55;1.85;;;;;;;13.81;100.00;101326.78;5054145;28;20057;-86
2022/05/05 03:25:51;;;;;;;6.32;2.03;;;;;;;14.02;100.00;101345.19;5053053;28;20049;-86
2022/05/05 03:28:20;;;;;;;4.28;1.50;;;;;;;14.22;100.00;101350.47;5053617;28;20079;-86
2022/05/05 03:30:47;;;;;;;5.85;1.58;;;;;;;14.09;100.00;101320.31;5060001;28;20405;-86
2022/05/05 03:33:14;;;;;;;5.07;1.65;;;;;;;13.84;100.00;101358.19;5074045;28;20139;-86
2022/05/05 03:35:41;;;;;;;4.68;1.55;;;;;;;13.76;100.00;101334.00;5073255;28;20051;-85
2022/05/05 03:38:07;;;;;;;4.28;1.58;;;;;;;13.70;100.00;101328.97;5073132;28;20049;-85
2022/05/05 03:40:34;;;;;;;6.28;2.13;;;;;;;13.20;100.00;101329.22;5074102;28;20051;-86
2022/05/05 03:43:01;;;;;;;5.63;1.90;;;;;;;12.90;100.00;101322.44;5073109;28;20044;-86
2022/05/05 03:45:28;;;;;;;5.50;1.80;;;;;;;13.28;100.00;101338.50;5073813;28;20051;-85
2022/05/05 03:47:55;;;;;;;6.20;1.80;;;;;;;13.40;100.00;101325.81;5074460;28;20051;-85
2022/05/05 03:50:21;;;;;;;5.55;1.73;;;;;;;13.59;100.00;101371.50;5074488;28;20055;-85
2022/05/05 03:52:48;;;;;;;4.45;1.65;;;;;;;13.32;100.00;101335.81;5073110;28;20044;-85
2022/05/05 03:55:15;;;;;;;5.47;1.70;;;;;;;13.45;100.00;101366.78;5074242;28;20048;-85
2022/05/05 03:57:41;;;;;;;6.65;1.90;;;;;;;13.03;100.00;101293.03;5074765;28;20511;-85
2022/05/05 04:00:09;;;;;;;6.55;1.83;;;;;;;13.33;100.00;101321.72;5073813;28;20056;-85
2022/05/05 04:02:36;;;;;;;4.68;1.70;;;;;;;13.18;100.00;101310.00;5074288;28;20052;-86
2022/05/05 04:05:03;;;;;;;6.85;1.90;;;;;;;13.27;100.00;101314.91;5072564;28;20131;-86
2022/05/05 04:07:29;;;;;;;3.47;1.38;;;;;;;13.62;100.00;101345.09;5072366;28;20067;-85
2022/05/05 04:09:56;;;;;;;2.70;1.38;;;;;;;13.37;100.00;101307.50;5072972;28;20523;-85
2022/05/05 04:12:23;;;;;;;5.22;1.50;;;;;;;13.29;100.00;101305.16;5074021;28;20456;-85
2022/05/05 04:14:51;;;;;;;7.00;1.60;;;;;;;13.32;100.00;101312.97;5073174;28;20045;-86
2022/05/05 04:17:18;;;;;;;8.65;1.77;;;;;;;13.48;100.00;101331.63;5072444;28;20076;-85
2022/05/05 04:19:44;;;;;;;6.00;1.70;;;;;;;13.49;100.00;101330.69;5073612;28;20056;-85
2022/05/05 04:22:11;;;;;;;7.93;1.70;;;;;;;13.56;100.00;101332.16;5071559;28;20398;-85
2022/05/05 04:24:38;;;;;;;5.05;1.67;;;;;;;13.44;100.00;101344.06;5071481;28;20059;-85
2022/05/05 04:27:05;;;;;;;4.63;1.63;;;;;;;13.17;100.00;101303.88;5072019;28;20475;-85
2022/05/05 04:29:32;;;;;;;4.93;1.83;;;;;;;13.26;100.00;101327.19;5073136;28;20071;-85
2022/05/05 04:32:00;;;;;;;6.20;1.98;;;;;;;13.18;100.00;101346.81;5073390;28;20135;-86
2022/05/05 04:34:27;;;;;;;4.50;1.60;;;;;;;13.66;100.00;101354.56;5072461;28;20049;-85
2022/05/05 04:36:54;;;;;;;4.82;1.55;;;;;;;13.29;100.00;101326.22;5071801;28;20044;-85
2022/05/05 04:39:21;;;;;;;5.53;1.75;;;;;;;13.29;100.00;101332.31;5073145;28;20048;-85
2022/05/05 04:41:47;;;;;;;4.63;1.75;;;;;;;13.01;100.00;101318.53;5071399;28;20051;-85
2022/05/05 04:44:14;;;;;;;5.38;1.80;;;;;;;13.17;100.00;101339.84;5071041;28;20049;-84
2022/05/05 04:46:41;;;;;;;5.88;1.95;;;;;;;13.42;100.00;101356.41;5068761;28;20045;-85
2022/05/05 04:49:08;;;;;;;9.32;2.72;;;;;;;13.04;100.00;101321.91;5057951;28;20041;-83
2022/05/05 04:51:34;;;;;;;5.95;1.90;;;;;;;13.22;100.00;101367.66;5064901;28;20055;-86
2022/05/05 04:54:01;;;;;;;6.28;1.98;;;;;;;13.04;100.00;101315.81;5054473;28;20172;-85
2022/05/05 04:56:28;;;;;;;5.43;1.90;;;;;;;13.13;100.00;101325.09;5065831;28;20058;-86
2022/05/05 04:58:55;;;;;;;5.78;1.95;;;;;;;12.85;100.00;101324.38;5087381;28;20401;-86
2022/05/05 05:01:22;;;;;;;6.53;2.00;;;;;;;13.34;100.00;101368.16;5062647;28;20471;-84
2022/05/05 05:03:52;;;;;;;5.05;1.85;;;;;;;13.62;100.00;101373.19;5064143;28;20049;-86
2022/05/05 05:06:18;;;;;;;6.55;2.65;;;;;;;13.14;100.00;101355.72;5066985;28;20049;-83
2022/05/05 05:08:46;;;;;;;6.93;2.28;;;;;;;13.07;100.00;101326.22;5066261;28;20051;-83
2022/05/05 05:11:13;;;;;;;6.95;2.28;;;;;;;12.94;100.00;101307.41;5059955;28;20067;-83
2022/05/05 05:13:40;;;;;;;7.55;2.30;;;;;;;13.29;100.00;101349.88;5066844;28;20553;-84
2022/05/05 05:16:06;;;;;;;5.00;1.75;;;;;;;13.25;100.00;101357.03;5065487;28;20047;-85
2022/05/05 05:18:54;;;;;;;6.03;1.80;;;;;;;13.17;100.00;101348.56;5058588;28;20060;-85
2022/05/05 05:21:21;;;;;;;6.28;2.10;;;;;;;13.18;100.00;101347.66;5056361;28;20474;-84
2022/05/05 05:23:48;;;;;;;5.20;1.90;;;;;;;12.96;100.00;101305.59;5058527;28;20055;-84
2022/05/05 05:26:15;;;;;;;8.02;3.10;;;;;;;13.36;100.00;101361.91;5061874;28;20120;-84
2022/05/05 05:28:42;;;;;;;6.78;2.80;;;;;;;12.66;100.00;101336.47;5061536;28;20052;-84
2022/05/05 05:31:08;;;;;;;9.57;3.42;;;;;;;12.75;100.00;101375.56;5062170;28;20052;-84
2022/05/05 05:33:35;;;;;;;7.28;2.53;;;;;;;12.70;100.00;101346.84;5060317;28;20150;-85
2022/05/05 05:36:02;;;;;;;7.03;2.03;;;;;;;13.45;100.00;101363.31;5063882;28;20368;-84
2022/05/05 05:38:29;;;;;;;7.63;2.80;;;;;;;13.02;100.00;101336.88;5062625;28;20052;-84
2022/05/05 05:40:56;;;;;;;7.90;2.28;;;;;;;13.25;100.00;101341.25;5072242;28;20497;-84
2022/05/05 05:43:23;;;;;;;8.38;2.60;;;;;;;12.99;100.00;101337.00;5069406;28;20048;-85
2022/05/05 05:45:49;;;;;;;6.50;2.45;;;;;;;13.05;100.00;101342.03;5059870;28;20041;-86
2022/05/05 05:48:19;;;;;;;8.75;2.13;;;;;;;13.47;100.00;101375.50;5059208;28;20048;-85
2022/05/05 05:50:46;;;;;;;6.28;2.53;;;;;;;13.33;100.00;101329.59;5062418;28;20370;-84
2022/05/05 05:53:12;;;;;;;6.55;2.35;;;;;;;13.57;100.00;101341.78;5064557;28;20403;-85
2022/05/05 05:55:39;;;;;;;7.50;2.80;;;;;;;13.73;100.00;101349.06;5064045;28;20048;-84
2022/05/05 05:58:06;;;;;;;7.65;2.75;;;;;;;13.70;100.00;101334.22;5062889;28;20049;-84
2022/05/05 06:00:33;;;;;;;6.03;2.33;;;;;;;13.75;100.00;101348.06;5064056;28;20131;-85
2022/05/05 06:05:46;;;;;;;5.35;2.22;;;;;;;13.95;100.00;101360.41;5061110;28;20083;-84
2022/05/05 06:08:15;;;;;;;8.13;2.67;;;;;;;13.77;100.00;101392.75;5060013;28;20048;-83
2022/05/05 06:10:42;;;;;;;5.82;2.00;;;;;;;13.95;100.00;101389.38;5061393;28;20405;-83
2022/05/05 06:13:09;;;;;;;5.25;2.03;;;;;;;13.89;100.00;101404.56;5071089;28;20051;-85
2022/05/05 06:15:36;;;;;;;6.00;2.05;;;;;;;13.88;100.00;101395.78;5070220;28;20385;-85
2022/05/05 06:18:02;;;;;;;7.75;2.30;;;;;;;13.70;100.00;101365.81;5052913;28;20132;-83
2022/05/05 06:20:38;;;;;;;5.90;2.05;;;;;;;13.61;100.00;101371.44;5063349;28;20467;-87
2022/05/05 06:23:06;;;;;;;6.90;2.20;;;;;;;13.57;100.00;101359.34;5055885;28;20041;-86
2022/05/05 06:25:32;;;;;;;6.88;2.22;;;;;;;13.64;100.00;101380.06;5064813;28;20092;-84
2022/05/05 06:28:00;;;;;;;7.45;2.13;;;;;;;13.61;100.00;101376.72;5061654;28;20052;-83
2022/05/05 06:30:27;;;;;;;6.35;2.30;;;;;;;13.45;100.00;101393.09;5068853;28;20052;-84
2022/05/05 06:32:54;;;;;;;4.28;1.70;;;;;;;13.38;100.00;101388.16;5094512;28;20124;-85
2022/05/05 06:35:21;;;;;;;6.25;2.22;;;;;;;13.46;100.00;101396.59;5064158;28;20099;-82
2022/05/05 06:37:50;;;;;;;4.68;1.90;;;;;;;13.43;100.00;101388.81;5069787;28;20059;-81
2022/05/05 06:40:17;;;;;;;6.70;2.42;;;;;;;13.52;100.00;101391.09;5064257;28;20094;-81
2022/05/05 06:42:44;;;;;;;5.65;1.92;;;;;;;13.62;100.00;101404.75;5059147;28;20119;-83
2022/05/05 06:45:11;;;;;;;7.68;2.22;;;;;;;13.36;100.00;101390.00;5063161;28;20060;-83
2022/05/05 06:47:38;;;;;;;4.35;1.83;;;;;;;13.37;100.00;101407.47;5061845;28;20052;-84
2022/05/05 06:50:06;;;;;;;4.72;1.90;;;;;;;13.30;100.00;101393.69;5093652;28;20044;-85
2022/05/05 06:52:33;;;;;;;5.25;1.95;;;;;;;13.38;100.00;101393.41;5066804;28;20054;-84
2022/05/05 06:55:06;;;;;;;5.35;1.92;;;;;;;13.25;100.00;101396.47;5066717;28;20045;-84
2022/05/05 06:57:33;;;;;;;5.13;1.77;;;;;;;13.50;100.00;101406.09;5071219;28;20059;-85
2022/05/05 07:00:00;;;;;;;6.10;1.95;;;;;;;13.51;100.00;101394.66;5072964;28;20425;-83
2022/05/05 07:02:27;;;;;;;6.68;2.40;;;;;;;13.59;100.00;101400.44;5074865;28;20172;-85
2022/05/05 07:07:39;;;;;;;9.88;3.00;;;;;;;13.69;100.00;101403.59;5069106;28;20050;-85
2022/05/05 07:12:52;;;;;;;6.07;2.38;;;;;;;13.20;100.00;101351.09;5062805;28;20398;-85
2022/05/05 07:15:18;;;;;;;5.75;2.00;;;;;;;13.43;100.00;101373.91;5072680;28;20052;-86
2022/05/05 07:17:47;;;;;;;9.52;2.75;;;;;;;13.66;100.00;101395.81;5063364;28;20049;-86
2022/05/05 07:20:14;;;;;;;5.72;1.90;;;;;;;13.77;100.00;101390.97;5070690;28;20051;-86
2022/05/05 07:22:40;;;;;;;5.95;1.67;;;;;;;14.08;100.00;101389.72;5071731;28;20044;-86
2022/05/05 07:25:08;;;;;;;4.88;2.00;;;;;;;14.08;100.00;101396.72;5072414;28;20081;-85
2022/05/05 07:27:35;;;;;;;8.10;2.53;;;;;;;14.11;100.00;101389.59;5057863;28;20394;-86
2022/05/05 07:30:02;;;;;;;6.10;2.25;;;;;;;13.99;100.00;101406.75;5073341;28;20482;-87
2022/05/05 07:32:29;;;;;;;7.63;2.10;;;;;;;13.88;100.00;101393.16;5071395;28;20066;-87
2022/05/05 07:34:59;;;;;;;6.30;2.30;;;;;;;14.11;100.00;101397.50;5072311;28;20060;-87
2022/05/05 07:37:26;;;;;;;8.18;2.85;;;;;;;14.57;100.00;101408.69;5054051;28;20044;-85
2022/05/05 07:39:53;;;;;;;7.50;2.20;;;;;;;14.23;100.00;101373.25;5067928;28;20052;-87
2022/05/05 07:42:20;;;;;;;8.10;2.83;;;;;;;14.28;100.00;101391.50;5071492;28;20052;-87
2022/05/05 07:44:46;;;;;;;7.32;2.72;;;;;;;14.23;100.00;101399.59;5071994;28;20040;-87
2022/05/05 07:47:13;;;;;;;7.00;2.58;;;;;;;13.74;100.00;101364.78;5070119;28;20037;-86
2022/05/05 07:49:40;;;;;;;5.70;2.17;;;;;;;14.15;100.00;101395.59;5071646;28;20082;-86
2022/05/05 07:52:07;;;;;;;5.22;1.98;;;;;;;14.52;100.00;101393.97;5071264;28;20049;-86
2022/05/05 07:54:42;;;;;;;6.78;2.42;;;;;;;14.26;100.00;101384.59;5071763;28;20040;-86
2022/05/05 07:57:12;;;;;;;5.43;2.00;;;;;;;14.63;100.00;101418.16;5051858;28;20041;-86
2022/05/05 07:59:40;;;;;;;4.82;1.95;;;;;;;14.69;100.00;101409.94;5066232;28;20052;-86
2022/05/05 08:02:13;;;;;;;4.78;1.98;;;;;;;14.94;100.00;101409.75;5066422;28;20139;-86
2022/05/05 08:04:41;;;;;;;6.85;2.05;;;;;;;14.93;100.00;101413.28;5060023;28;20052;-87
2022/05/05 08:07:08;;;;;;;5.28;1.83;;;;;;;15.13;100.00;101409.72;5053147;28;20044;-86
2022/05/05 08:09:36;;;;;;;6.03;1.90;;;;;;;14.68;100.00;101410.91;5068770;28;20051;-87
2022/05/05 08:12:23;;;;;;;6.60;1.60;;;;;;;15.14;100.00;101402.69;5054763;28;20428;-88
2022/05/05 08:14:49;;;;;;;4.03;1.50;;;;;;;15.07;100.00;101403.88;5057182;28;20136;-86
2022/05/05 08:17:16;;;;;;;7.53;1.83;;;;;;;15.29;100.00;101401.97;5067729;28;20041;-90
2022/05/05 08:19:43;;;;;;;3.45;1.20;;;;;;;15.27;100.00;101393.28;5071048;28;20049;-89
2022/05/05 08:22:10;;;;;;;3.22;1.20;;;;;;;14.78;100.00;101351.56;5067184;28;20221;-85
2022/05/05 08:30:09;;;;;;;5.10;1.90;;;;;;;15.27;100.00;101395.06;5072460;28;20048;-87
2022/05/05 08:32:36;;;;;;;4.68;1.60;;;;;;;15.02;100.00;101414.66;5068826;28;20056;-87
2022/05/05 08:35:03;;;;;;;4.78;1.58;;;;;;;15.31;100.00;101389.56;5066171;28;20103;-88
2022/05/05 08:37:30;;;;;;;3.60;1.20;;;;;;;15.05;100.00;101388.16;5061644;28;20060;-88
2022/05/05 08:39:56;;;;;;;3.55;1.15;;;;;;;14.98;100.00;101370.91;5059735;28;20052;-88
2022/05/05 08:42:24;;;;;;;4.40;1.35;;;;;;;15.44;100.00;101386.34;5083808;28;20049;-87
2022/05/05 08:44:51;;;;;;;3.15;1.20;;;;;;;15.46;100.00;101388.00;5068115;28;20126;-88
2022/05/05 08:47:23;;;;;;;5.65;1.30;;;;;;;15.66;100.00;101391.44;5065477;28;20037;-89
2022/05/05 08:49:57;;;;;;;4.05;1.55;;;;;;;15.74;100.00;101407.75;5070119;28;20054;-87
2022/05/05 08:52:25;;;;;;;7.97;1.88;;;;;;;15.54;100.00;101385.81;5069868;28;20084;-87
2022/05/05 08:54:52;;;;;;;6.00;1.67;;;;;;;15.19;100.00;101367.25;5070376;28;20056;-87
2022/05/05 08:57:19;;;;;;;4.47;1.40;;;;;;;15.23;100.00;101349.50;5070890;28;20048;-88
2022/05/05 08:59:46;;;;;;;4.15;1.25;;;;;;;15.36;100.00;101374.34;5055947;28;20056;-88
2022/05/05 09:02:13;;;;;;;4.00;1.42;;;;;;;15.43;100.00;101377.56;5070269;28;20059;-87
2022/05/05 09:04:46;;;;;;;4.03;1.50;;;;;;;15.31;100.00;101412.44;5071978;28;20052;-87
2022/05/05 09:07:13;;;;;;;3.35;1.10;;;;;;;15.90;100.00;101403.50;5070846;28;20052;-86
2022/05/05 09:09:41;;;;;;;5.78;1.40;;;;;;;15.98;100.00;101416.31;5070482;28;20048;-86
2022/05/05 09:12:14;;;;;;;2.30;1.10;;;;;;;16.27;100.00;101409.56;5074581;28;20049;-84
2022/05/05 09:14:46;;;;;;;3.85;1.33;;;;;;;16.02;100.00;101403.78;5072081;28;20415;-85
2022/05/05 09:17:29;;;;;;;4.03;1.10;;;;;;;16.09;100.00;101400.75;5071106;28;20040;-85
2022/05/05 09:19:57;;;;;;;5.43;1.35;;;;;;;16.02;100.00;101417.00;5070730;28;20509;-85
2022/05/05 09:22:26;;;;;;;4.97;1.13;;;;;;;15.69;100.00;101410.63;5070446;28;20052;-85
2022/05/05 09:24:56;;;;;;;3.75;1.05;;;;;;;16.08;100.00;101385.03;5070804;28;20406;-85
2022/05/05 09:27:26;;;;;;;4.60;1.65;;;;;;;15.69;100.00;101423.00;5069373;28;20052;-85
2022/05/05 09:30:12;;;;;;;6.70;1.20;;;;;;;15.93;100.00;101424.44;5069919;28;20056;-84
2022/05/05 09:32:44;;;;;;;3.50;1.30;;;;;;;15.77;100.00;101415.56;5069882;28;20090;-84
2022/05/05 09:35:12;;;;;;;4.15;1.13;;;;;;;15.57;100.00;101413.88;5069872;28;20045;-84
2022/05/05 09:37:50;;;;;;;4.25;1.35;;;;;;;15.65;100.00;101406.44;5069934;28;20051;-84
2022/05/05 09:40:19;;;;;;;3.88;1.17;;;;;;;15.78;100.00;101412.00;5069771;28;20048;-85
2022/05/05 09:42:47;;;;;;;6.03;1.65;;;;;;;15.86;100.00;101409.81;5069402;28;20557;-85
2022/05/05 09:45:19;;;;;;;6.32;1.48;;;;;;;15.85;100.00;101407.28;5065544;28;20052;-85
2022/05/05 09:47:58;;;;;;;4.40;1.48;;;;;;;15.81;100.00;101417.16;5069041;28;20143;-84
2022/05/05 09:50:26;;;;;;;5.05;1.52;;;;;;;15.51;100.00;101398.31;5069330;28;20087;-84
2022/05/05 09:58:39;;;;;;;3.10;1.35;;;;;;;16.17;100.00;101394.28;5070772;28;20111;-85
2022/05/05 10:01:13;;;;;;;2.85;1.00;;;;;;;16.49;100.00;101382.03;5069805;28;20048;-85
2022/05/05 10:04:06;;;;;;;5.10;1.10;;;;;;;16.75;100.00;101396.53;5072477;28;20056;-85
2022/05/05 10:06:35;;;;;;;2.28;1.10;;;;;;;16.88;100.00;101367.66;5074551;28;20071;-86
2022/05/05 10:09:07;;;;;;;3.60;1.02;;;;;;;16.99;100.00;101385.59;5073671;28;20087;-85
2022/05/05 10:11:35;;;;;;;2.38;0.85;;;;;;;17.19;100.00;101403.03;5073586;28;20040;-85
2022/05/05 10:14:06;;;;;;;4.85;1.20;;;;;;;17.32;100.00;101404.06;5071919;28;20087;-85
2022/05/05 10:16:34;;;;;;;7.30;1.23;;;;;;;17.15;100.00;101396.19;5059294;28;20052;-84
2022/05/05 10:19:04;;;;;;;2.97;1.10;;;;;;;17.29;100.00;101374.28;5073538;28;20044;-85
2022/05/05 10:21:50;;;;;;;2.35;0.90;;;;;;;17.41;100.00;101395.59;5070025;28;20451;-85
2022/05/05 10:24:30;;;;;;;3.67;1.23;;;;;;;17.56;100.00;101382.44;5070310;28;20045;-85
2022/05/05 10:26:59;;;;;;;3.35;1.10;;;;;;;17.68;100.00;101383.56;5073716;28;20127;-85
2022/05/05 10:29:40;;;;;;;3.33;1.10;;;;;;;18.43;100.00;101375.66;5071150;28;20117;-84
2022/05/05 10:32:09;;;;;;;2.83;1.00;;;;;;;18.21;100.00;101392.84;5066363;28;20550;-85
2022/05/05 10:34:39;;;;;;;3.85;1.23;;;;;;;17.74;100.00;101384.06;5064782;28;20044;-85
2022/05/05 10:37:10;;;;;;;;;;;;;;;18.19;100.00;101395.59;5059632;28;20475;-85
2022/05/05 10:40:08;;;;;;;1.77;0.85;;;;;;;18.56;100.00;101388.06;5070704;28;20255;-85
2022/05/05 10:42:39;;;;;;;1.77;0.80;;;;;;;18.87;100.00;101386.22;5073182;28;20076;-85
2022/05/05 10:45:13;;;;;;;2.00;0.93;;;;;;;18.63;100.00;101372.66;5063165;28;20120;-85
2022/05/05 10:47:55;;;;;;;1.38;0.65;;;;;;;18.52;100.00;101383.91;5068294;28;20045;-85
2022/05/05 10:50:43;;;;;;;1.70;0.80;;;;;;;18.14;100.00;101383.56;5071026;28;20071;-85
2022/05/05 10:53:31;;;;;;;3.05;1.10;;;;;;;18.09;100.00;101393.56;5067740;28;20127;-85
2022/05/05 10:56:03;;;;;;;1.60;0.80;;;;;;;18.32;100.00;101386.91;5053301;28;20053;-84
2022/05/05 10:58:59;;;;;;;2.83;1.15;;;;;;;18.14;100.00;101387.03;5066406;28;20504;-85
2022/05/05 11:01:29;;;;;;;3.30;1.20;;;;;;;18.26;100.00;101358.13;5072383;28;20055;-85
2022/05/05 11:04:23;;;;;;;3.03;0.90;;;;;;;18.18;100.00;101370.03;5073053;28;20098;-85
2022/05/05 11:07:30;;;;;;;3.63;1.02;;;;;;;18.19;100.00;101373.53;5072401;28;20079;-85
2022/05/05 11:09:58;;;;;;;3.47;1.00;;;;;;;18.81;100.00;101365.34;5053462;28;20411;-85
2022/05/05 11:12:31;;;;;;;3.95;0.82;;;;;;;19.02;100.00;101372.94;5067682;28;20077;-85
2022/05/05 11:23:49;;;;;;;3.65;1.27;;;;;;;19.49;100.00;101353.09;5074109;28;20048;-84
2022/05/05 11:26:17;;;;;;;3.30;1.10;;;;;;;19.49;100.00;101361.06;5071067;28;20450;-86
2022/05/05 11:28:46;;;;;;;6.95;1.48;;;;;;;19.32;100.00;101362.19;5072284;28;20482;-85
2022/05/05 11:31:19;;;;;;;2.60;0.90;;;;;;;19.46;100.00;101353.28;5071851;28;20397;-85
2022/05/05 11:33:54;;;;;;;2.67;1.20;;;;;;;19.44;100.00;101347.22;5072776;28;20383;-85
2022/05/05 11:36:26;;;;;;;2.15;0.90;;;;;;;19.38;100.00;101335.22;5073285;28;20080;-85
2022/05/05 11:38:53;;;;;;;3.83;1.00;;;;;;;19.80;100.00;101349.31;5073331;28;20137;-85
2022/05/05 11:41:20;;;;;;;2.60;0.90;;;;;;;19.60;100.00;101355.91;5069686;28;20110;-85
2022/05/05 11:46:33;;;;;;;4.20;1.25;;;;;;;19.83;100.00;101354.44;5069487;28;20084;-85
2022/05/05 11:49:00;;;;;;;3.63;0.95;;;;;;;19.20;100.00;101339.06;5071693;28;20044;-85
2022/05/05 11:51:30;;;;;;;3.47;1.17;;;;;;;19.85;100.00;101356.97;5071184;28;20058;-85
2022/05/05 11:54:08;;;;;;;2.65;1.00;;;;;;;19.83;100.00;101361.53;5071596;28;20044;-85
2022/05/05 11:56:42;;;;;;;3.83;1.30;;;;;;;19.71;100.00;101348.06;5072339;28;20474;-84
2022/05/05 12:02:04;;;;;;;1.23;0.63;;;;;;;20.03;100.00;101349.56;5056413;28;20063;-85
2022/05/05 12:04:37;;;;;;;3.30;0.80;;;;;;;20.15;100.00;101330.13;5069602;28;20135;-84
2022/05/05 12:07:06;;;;;;;1.10;0.70;;;;;;;20.43;100.00;101336.19;5070273;28;20375;-85
2022/05/05 12:09:34;;;;;;;1.15;0.60;;;;;;;20.61;100.00;101345.56;5069357;28;20053;-87
2022/05/05 12:12:16;;;;;;;1.85;0.70;;;;;;;20.41;100.00;101314.16;5066414;28;20110;-85
2022/05/05 12:14:52;;;;;;;1.73;0.70;;;;;;;20.39;100.00;101324.91;5071751;28;20059;-90